createdAt,value
2023-02-17T00:00:39.820Z,8.24
2023-02-17T00:03:07.412Z,8.23
2023-02-17T00:05:40.130Z,8.22
2023-02-17T00:08:07.745Z,8.23
2023-02-17T00:10:35.394Z,8.27
2023-02-17T00:13:02.978Z,8.28
2023-02-17T00:15:30.582Z,8.28
2023-02-17T00:17:58.215Z,8.30
2023-02-17T00:20:25.924Z,8.30
2023-02-17T00:22:54.855Z,8.29
2023-02-17T00:25:22.487Z,8.23
2023-02-17T00:27:50.072Z,8.22
2023-02-17T00:30:18.208Z,8.22
2023-02-17T00:32:45.840Z,8.26
2023-02-17T00:35:13.708Z,8.30
2023-02-17T00:37:41.378Z,8.30
2023-02-17T00:40:11.155Z,8.29
2023-02-17T00:42:38.769Z,8.28
2023-02-17T00:45:07.125Z,8.29
2023-02-17T00:47:34.750Z,8.29
2023-02-17T00:50:02.475Z,8.31
2023-02-17T00:52:30.078Z,8.32
2023-02-17T00:54:57.617Z,8.30
2023-02-17T00:57:27.307Z,8.30
2023-02-17T00:59:54.869Z,8.28
2023-02-17T01:02:22.483Z,8.28
2023-02-17T01:04:50.189Z,8.27
2023-02-17T01:07:17.788Z,8.25
2023-02-17T01:09:45.368Z,8.24
2023-02-17T01:12:13.072Z,8.27
2023-02-17T01:14:42.103Z,8.23
2023-02-17T01:17:09.754Z,8.23
2023-02-17T01:19:37.386Z,8.22
2023-02-17T01:22:05.060Z,8.24
2023-02-17T01:24:32.834Z,8.25
2023-02-17T01:27:00.411Z,8.21
2023-02-17T01:29:28.010Z,8.21
2023-02-17T01:31:56.970Z,8.22
2023-02-17T01:34:24.619Z,8.23
2023-02-17T01:36:52.183Z,8.27
2023-02-17T01:39:19.947Z,8.30
2023-02-17T01:41:47.662Z,8.34
2023-02-17T01:44:17.545Z,8.40
2023-02-17T01:46:46.875Z,8.41
2023-02-17T01:49:25.349Z,8.43
2023-02-17T01:51:56.245Z,8.45
2023-02-17T01:54:27.640Z,8.49
2023-02-17T01:56:55.961Z,8.57
2023-02-17T01:59:23.907Z,8.62
2023-02-17T02:01:53.730Z,8.63
2023-02-17T02:04:26.268Z,8.65
2023-02-17T02:06:53.945Z,8.65
2023-02-17T02:09:23.746Z,8.66
2023-02-17T02:11:51.725Z,8.68
2023-02-17T02:14:19.791Z,8.70
2023-02-17T02:16:52.141Z,8.69
2023-02-17T02:19:37.856Z,8.69
2023-02-17T02:22:23.167Z,8.68
2023-02-17T02:25:00.809Z,8.66
2023-02-17T02:27:49.669Z,8.68
2023-02-17T02:30:28.335Z,8.66
2023-02-17T02:33:05.257Z,8.65
2023-02-17T02:35:39.039Z,8.63
2023-02-17T02:38:13.181Z,8.62
2023-02-17T02:40:44.642Z,8.60
2023-02-17T02:43:12.831Z,8.60
2023-02-17T02:45:40.457Z,8.58
2023-02-17T02:48:09.434Z,8.52
2023-02-17T02:50:55.186Z,8.50
2023-02-17T02:53:53.916Z,8.50
2023-02-17T02:56:32.845Z,8.49
2023-02-17T02:59:07.611Z,8.48
2023-02-17T03:01:39.048Z,8.46
2023-02-17T03:04:12.432Z,8.45
2023-02-17T03:06:44.093Z,8.43
2023-02-17T03:09:13.615Z,8.45
2023-02-17T03:11:42.500Z,8.46
2023-02-17T03:14:11.962Z,8.47
2023-02-17T03:16:40.714Z,8.47
2023-02-17T03:19:11.304Z,8.47
2023-02-17T03:21:41.241Z,8.46
2023-02-17T03:24:09.281Z,8.44
2023-02-17T03:26:36.877Z,8.46
2023-02-17T03:29:04.507Z,8.49
2023-02-17T03:31:32.518Z,8.50
2023-02-17T03:34:01.285Z,8.52
2023-02-17T03:36:30.904Z,8.52
2023-02-17T03:38:58.889Z,8.53
2023-02-17T03:41:26.959Z,8.55
2023-02-17T03:43:54.584Z,8.60
2023-02-17T03:46:22.464Z,8.61
2023-02-17T03:48:50.077Z,8.59
2023-02-17T03:51:19.870Z,8.58
2023-02-17T03:53:49.470Z,8.58
2023-02-17T03:56:18.008Z,8.58
2023-02-17T03:58:46.107Z,8.59
2023-02-17T04:01:14.390Z,8.58
2023-02-17T04:03:42.479Z,8.59
2023-02-17T04:06:11.543Z,8.63
2023-02-17T04:08:39.827Z,8.63
2023-02-17T04:11:10.775Z,8.69
2023-02-17T04:13:38.893Z,8.73
2023-02-17T04:16:08.908Z,8.75
2023-02-17T04:18:36.992Z,8.74
2023-02-17T04:21:05.556Z,8.76
2023-02-17T04:23:33.440Z,8.77
2023-02-17T04:26:01.045Z,8.76
2023-02-17T04:28:29.967Z,8.77
2023-02-17T04:30:59.016Z,8.74
2023-02-17T04:33:27.512Z,8.73
2023-02-17T04:35:59.402Z,8.75
2023-02-17T04:38:28.366Z,8.73
2023-02-17T04:40:56.469Z,8.74
2023-02-17T04:43:24.364Z,8.76
2023-02-17T04:45:53.362Z,8.79
2023-02-17T04:48:21.592Z,8.81
2023-02-17T04:50:49.391Z,8.81
2023-02-17T04:53:17.179Z,8.84
2023-02-17T04:55:44.833Z,8.86
2023-02-17T04:58:12.440Z,8.81
2023-02-17T05:00:40.012Z,8.83
2023-02-17T05:03:10.195Z,8.85
2023-02-17T05:05:37.847Z,8.85
2023-02-17T05:08:05.898Z,8.83
2023-02-17T05:10:33.451Z,8.83
2023-02-17T05:13:01.030Z,8.82
2023-02-17T05:15:28.704Z,8.79
2023-02-17T05:17:56.262Z,8.81
2023-02-17T05:20:25.317Z,8.82
2023-02-17T05:22:52.953Z,8.84
2023-02-17T05:25:20.603Z,8.86
2023-02-17T05:27:48.204Z,8.85
2023-02-17T05:30:16.115Z,8.87
2023-02-17T05:32:43.724Z,8.90
2023-02-17T05:35:11.366Z,8.95
2023-02-17T05:37:40.545Z,8.98
2023-02-17T05:40:09.365Z,8.97
2023-02-17T05:42:37.096Z,8.98
2023-02-17T05:45:04.959Z,9.02
2023-02-17T05:47:32.598Z,9.01
2023-02-17T05:50:00.229Z,8.98
2023-02-17T05:52:27.951Z,9.00
2023-02-17T05:54:56.924Z,8.98
2023-02-17T05:57:24.544Z,9.00
2023-02-17T05:59:52.145Z,9.02
2023-02-17T06:02:19.790Z,9.03
2023-02-17T06:04:47.478Z,9.04
2023-02-17T06:07:15.142Z,9.07
2023-02-17T06:09:42.773Z,9.11
2023-02-17T06:12:11.704Z,9.13
2023-02-17T06:14:39.390Z,9.18
2023-02-17T06:17:07.025Z,9.22
2023-02-17T06:19:34.755Z,9.25
2023-02-17T06:22:02.370Z,9.25
2023-02-17T06:24:30.063Z,9.27
2023-02-17T06:26:57.679Z,9.30
2023-02-17T06:29:27.664Z,9.33
2023-02-17T06:31:55.692Z,9.35
2023-02-17T06:34:23.642Z,9.36
2023-02-17T06:36:51.234Z,9.37
2023-02-17T06:39:18.857Z,9.38
2023-02-17T06:41:46.848Z,9.38
2023-02-17T06:44:14.492Z,9.43
2023-02-17T06:46:46.026Z,9.45
2023-02-17T06:49:13.772Z,9.49
2023-02-17T06:51:41.710Z,9.54
2023-02-17T06:54:09.528Z,9.54
2023-02-17T06:56:37.516Z,9.53
2023-02-17T06:59:05.476Z,9.56
2023-02-17T07:01:33.152Z,9.59
2023-02-17T07:04:02.118Z,9.59
2023-02-17T07:06:29.792Z,9.61
2023-02-17T07:08:57.452Z,9.67
2023-02-17T07:11:26.209Z,9.71
2023-02-17T07:13:53.756Z,9.76
2023-02-17T07:16:21.442Z,9.81
2023-02-17T07:18:49.099Z,9.87
2023-02-17T07:21:18.173Z,9.92
2023-02-17T07:23:46.273Z,9.99
2023-02-17T07:26:28.588Z,10.06
2023-02-17T07:28:56.058Z,10.11
2023-02-17T07:31:23.804Z,10.15
2023-02-17T07:33:51.434Z,10.16
2023-02-17T07:36:20.472Z,10.19
2023-02-17T07:38:48.289Z,10.25
2023-02-17T07:41:18.088Z,10.24
2023-02-17T07:43:46.449Z,10.24
2023-02-17T07:46:14.212Z,10.23
2023-02-17T07:48:42.247Z,10.25
2023-02-17T07:51:11.406Z,10.25
2023-02-17T07:53:40.650Z,10.28
2023-02-17T07:56:09.736Z,10.30
2023-02-17T07:58:38.912Z,10.33
2023-02-17T08:01:07.677Z,10.36
2023-02-17T08:03:35.413Z,10.36
2023-02-17T08:06:03.216Z,10.40
2023-02-17T08:08:48.289Z,10.42
2023-02-17T08:11:35.384Z,10.46
2023-02-17T08:14:03.247Z,10.49
2023-02-17T08:16:30.858Z,10.50
2023-02-17T08:18:58.802Z,10.53
2023-02-17T08:21:28.048Z,10.54
2023-02-17T08:23:55.976Z,10.57
2023-02-17T08:26:24.979Z,10.57
2023-02-17T08:28:52.610Z,10.61
2023-02-17T08:31:22.940Z,10.63
2023-02-17T08:33:51.084Z,10.68
2023-02-17T08:36:21.041Z,10.73
2023-02-17T08:38:50.422Z,10.81
2023-02-17T08:41:20.334Z,10.86
2023-02-17T08:43:49.862Z,10.91
2023-02-17T08:46:18.709Z,10.96
2023-02-17T08:48:46.701Z,11.01
2023-02-17T08:51:15.187Z,11.02
2023-02-17T08:53:43.232Z,11.01
2023-02-17T08:56:11.056Z,11.01
2023-02-17T08:58:38.669Z,11.01
2023-02-17T09:01:07.688Z,11.04
2023-02-17T09:03:35.435Z,10.99
2023-02-17T09:06:03.227Z,11.01
2023-02-17T09:08:31.120Z,11.04
2023-02-17T09:10:59.369Z,11.08
2023-02-17T09:13:27.355Z,11.08
2023-02-17T09:15:55.256Z,11.11
2023-02-17T09:18:24.473Z,11.14
2023-02-17T09:20:52.273Z,11.17
2023-02-17T09:23:20.201Z,11.12
2023-02-17T09:25:47.817Z,11.09
2023-02-17T09:28:15.431Z,11.08
2023-02-17T09:30:43.290Z,10.91
2023-02-17T09:33:10.987Z,10.88
2023-02-17T09:35:40.302Z,10.79
2023-02-17T09:38:10.282Z,10.78
2023-02-17T09:40:43.013Z,10.81
2023-02-17T09:43:14.802Z,10.82
2023-02-17T09:45:44.099Z,10.87
2023-02-17T09:48:13.041Z,10.89
2023-02-17T09:50:44.810Z,10.88
2023-02-17T09:53:19.210Z,10.90
2023-02-17T09:55:49.260Z,10.93
2023-02-17T09:58:20.563Z,10.99
2023-02-17T10:00:50.216Z,11.07
2023-02-17T10:03:20.683Z,11.17
2023-02-17T10:05:53.910Z,11.25
2023-02-17T10:08:23.933Z,11.32
2023-02-17T10:10:55.076Z,11.39
2023-02-17T10:13:23.935Z,11.41
2023-02-17T10:15:53.659Z,11.42
2023-02-17T10:18:26.431Z,11.46
2023-02-17T10:20:59.635Z,11.53
2023-02-17T10:23:29.783Z,11.59
2023-02-17T10:26:06.920Z,11.67
2023-02-17T10:28:52.352Z,11.74
2023-02-17T10:31:27.918Z,11.80
2023-02-17T10:33:59.402Z,11.93
2023-02-17T10:36:34.002Z,12.01
2023-02-17T10:39:04.786Z,12.03
2023-02-17T10:41:36.073Z,12.06
2023-02-17T10:44:08.101Z,12.14
2023-02-17T10:46:35.914Z,12.22
2023-02-17T10:49:06.239Z,12.28
2023-02-17T10:51:37.009Z,12.33
2023-02-17T10:54:08.566Z,12.40
2023-02-17T10:56:39.652Z,12.41
2023-02-17T10:59:08.888Z,12.49
2023-02-17T11:01:37.525Z,12.68
2023-02-17T11:04:06.752Z,12.91
2023-02-17T11:06:44.311Z,13.14
2023-02-17T11:09:20.100Z,13.33
2023-02-17T11:11:54.422Z,13.43
2023-02-17T11:14:25.417Z,13.42
2023-02-17T11:16:55.847Z,13.44
2023-02-17T11:19:25.583Z,13.42
2023-02-17T11:21:56.129Z,13.36
2023-02-17T11:24:24.244Z,13.35
2023-02-17T11:26:59.683Z,13.41
2023-02-17T11:29:27.566Z,13.36
2023-02-17T11:31:56.471Z,13.39
2023-02-17T11:34:26.691Z,13.33
2023-02-17T11:37:05.104Z,13.38
2023-02-17T11:39:39.127Z,13.43
2023-02-17T11:42:15.721Z,13.37
2023-02-17T11:44:43.530Z,13.46
2023-02-17T11:47:16.775Z,13.50
2023-02-17T11:49:56.231Z,13.55
2023-02-17T11:52:44.716Z,13.57
2023-02-17T11:55:24.688Z,13.59
2023-02-17T11:58:01.748Z,13.66
2023-02-17T12:00:34.177Z,13.75
2023-02-17T12:03:22.465Z,13.73
2023-02-17T12:06:00.177Z,13.77
2023-02-17T12:08:38.282Z,13.80
2023-02-17T12:11:12.920Z,13.73
2023-02-17T12:13:47.993Z,13.60
2023-02-17T12:16:29.002Z,13.40
2023-02-17T12:19:03.429Z,13.46
2023-02-17T12:21:43.583Z,13.45
2023-02-17T12:24:29.628Z,13.49
2023-02-17T12:27:04.278Z,13.56
2023-02-17T12:29:43.673Z,13.54
2023-02-17T12:32:21.695Z,13.46
2023-02-17T12:34:52.980Z,13.55
2023-02-17T12:37:23.355Z,13.48
2023-02-17T12:39:54.695Z,13.48
2023-02-17T12:42:24.918Z,13.54
2023-02-17T12:44:54.959Z,13.45
2023-02-17T12:47:27.074Z,13.36
2023-02-17T12:49:58.797Z,13.34
2023-02-17T12:52:28.478Z,13.40
2023-02-17T12:55:00.356Z,13.38
2023-02-17T12:57:34.408Z,13.38
2023-02-17T13:00:02.620Z,13.11
2023-02-17T13:02:30.784Z,13.03
2023-02-17T13:05:01.513Z,12.86
2023-02-17T13:07:40.689Z,12.86
2023-02-17T13:10:20.876Z,12.84
2023-02-17T13:12:57.681Z,12.79
2023-02-17T13:15:28.958Z,12.81
2023-02-17T13:18:01.260Z,12.76
2023-02-17T13:20:41.983Z,12.71
2023-02-17T13:23:13.695Z,12.79
2023-02-17T13:25:42.697Z,12.91
2023-02-17T13:28:35.166Z,12.91
2023-02-17T13:31:15.224Z,12.89
2023-02-17T13:33:45.986Z,12.87
2023-02-17T13:36:16.683Z,12.93
2023-02-17T13:38:56.466Z,12.94
2023-02-17T13:41:25.465Z,12.95
2023-02-17T13:43:53.332Z,13.02
2023-02-17T13:46:24.366Z,13.05
2023-02-17T13:49:04.032Z,12.98
2023-02-17T13:51:33.672Z,12.93
2023-02-17T13:54:09.003Z,12.90
2023-02-17T13:56:37.994Z,12.78
2023-02-17T13:59:10.731Z,12.75
2023-02-17T14:01:39.627Z,12.69
2023-02-17T14:04:19.146Z,12.66
2023-02-17T14:06:48.724Z,12.64
2023-02-17T14:09:22.034Z,12.70
2023-02-17T14:11:51.241Z,12.66
2023-02-17T14:14:19.052Z,12.71
2023-02-17T14:16:47.033Z,12.73
2023-02-17T14:19:16.299Z,12.76
2023-02-17T14:21:45.841Z,12.79
2023-02-17T14:24:27.120Z,12.78
2023-02-17T14:26:59.873Z,12.78
2023-02-17T14:29:27.881Z,12.75
2023-02-17T14:31:55.664Z,12.76
2023-02-17T14:34:28.078Z,12.69
2023-02-17T14:37:11.601Z,12.61
2023-02-17T14:39:39.231Z,12.66
2023-02-17T14:42:08.400Z,12.56
2023-02-17T14:44:36.049Z,12.60
2023-02-17T14:47:03.683Z,12.55
2023-02-17T14:49:31.349Z,12.60
2023-02-17T14:51:59.143Z,12.59
2023-02-17T14:54:28.761Z,12.53
2023-02-17T14:57:03.679Z,12.56
2023-02-17T14:59:32.973Z,12.56
2023-02-17T15:02:01.349Z,12.58
2023-02-17T15:04:29.203Z,12.57
2023-02-17T15:06:56.875Z,12.54
2023-02-17T15:09:29.278Z,12.52
2023-02-17T15:11:57.161Z,12.47
2023-02-17T15:14:25.186Z,12.51
2023-02-17T15:16:54.257Z,12.41
2023-02-17T15:19:21.953Z,12.35
2023-02-17T15:21:50.810Z,12.38
2023-02-17T15:24:20.164Z,12.37
2023-02-17T15:26:48.157Z,12.34
2023-02-17T15:29:17.398Z,12.36
2023-02-17T15:31:45.776Z,12.34
2023-02-17T15:34:17.104Z,12.28
2023-02-17T15:36:44.923Z,12.21
2023-02-17T15:39:13.018Z,12.18
2023-02-17T15:41:41.144Z,12.16
2023-02-17T15:44:14.521Z,12.06
2023-02-17T15:46:42.255Z,12.04
2023-02-17T15:49:11.062Z,12.07
2023-02-17T15:51:40.234Z,12.02
2023-02-17T15:54:07.844Z,12.04
2023-02-17T15:56:39.844Z,11.94
2023-02-17T15:59:11.102Z,11.99
2023-02-17T16:01:38.830Z,11.94
2023-02-17T16:04:07.601Z,11.80
2023-02-17T16:06:35.190Z,11.86
2023-02-17T16:09:04.228Z,11.81
2023-02-17T16:11:32.053Z,11.75
2023-02-17T16:14:00.110Z,11.69
2023-02-17T16:16:32.289Z,11.69
2023-02-17T16:18:59.766Z,11.62
2023-02-17T16:21:27.464Z,11.58
2023-02-17T16:23:59.805Z,11.42
2023-02-17T16:26:32.861Z,11.37
2023-02-17T16:29:01.797Z,11.29
2023-02-17T16:31:32.281Z,11.18
2023-02-17T16:34:00.428Z,11.13
2023-02-17T16:36:32.324Z,11.07
2023-02-17T16:39:01.966Z,11.05
2023-02-17T16:41:30.905Z,11.01
2023-02-17T16:43:58.535Z,11.00
2023-02-17T16:46:30.424Z,11.02
2023-02-17T16:48:58.097Z,11.01
2023-02-17T16:51:25.821Z,10.89
2023-02-17T16:53:53.795Z,10.88
2023-02-17T16:56:24.146Z,10.86
2023-02-17T16:58:53.098Z,10.85
2023-02-17T17:01:22.066Z,10.84
2023-02-17T17:03:50.594Z,10.86
2023-02-17T17:06:20.668Z,10.84
2023-02-17T17:08:48.733Z,10.79
2023-02-17T17:11:18.091Z,10.72
2023-02-17T17:13:46.601Z,10.76
2023-02-17T17:16:17.615Z,10.70
2023-02-17T17:18:45.264Z,10.66
2023-02-17T17:21:13.930Z,10.64
2023-02-17T17:23:41.895Z,10.61
2023-02-17T17:26:18.510Z,10.61
2023-02-17T17:28:48.084Z,10.62
2023-02-17T17:31:17.302Z,10.61
2023-02-17T17:33:46.039Z,10.51
2023-02-17T17:36:18.340Z,10.49
2023-02-17T17:38:46.021Z,10.53
2023-02-17T17:41:14.712Z,10.55
2023-02-17T17:43:45.099Z,10.54
2023-02-17T17:46:14.438Z,10.54
2023-02-17T17:48:43.936Z,10.54
2023-02-17T17:51:13.691Z,10.53
2023-02-17T17:53:41.910Z,10.51
2023-02-17T17:56:14.144Z,10.49
2023-02-17T17:58:41.817Z,10.50
2023-02-17T18:01:09.540Z,10.50
2023-02-17T18:03:37.214Z,10.54
2023-02-17T18:06:07.547Z,10.56
2023-02-17T18:08:36.166Z,10.56
2023-02-17T18:11:03.987Z,10.57
2023-02-17T18:13:31.729Z,10.59
2023-02-17T18:15:59.479Z,10.59
2023-02-17T18:18:28.544Z,10.59
2023-02-17T18:20:56.125Z,10.62
2023-02-17T18:23:25.048Z,10.61
2023-02-17T18:25:52.671Z,10.62
2023-02-17T18:28:20.277Z,10.66
2023-02-17T18:30:48.018Z,10.64
2023-02-17T18:33:15.839Z,10.69
2023-02-17T18:35:45.489Z,10.73
2023-02-17T18:38:13.475Z,10.75
2023-02-17T18:40:42.670Z,10.78
2023-02-17T18:43:10.464Z,10.78
2023-02-17T18:45:38.398Z,10.77
2023-02-17T18:48:06.312Z,10.75
2023-02-17T18:50:34.942Z,10.71
2023-02-17T18:53:05.090Z,10.75
2023-02-17T18:55:33.007Z,10.78
2023-02-17T18:58:01.947Z,10.78
2023-02-17T19:00:29.963Z,10.82
2023-02-17T19:02:57.616Z,10.81
2023-02-17T19:05:28.318Z,10.82
2023-02-17T19:07:56.115Z,10.81
2023-02-17T19:10:23.714Z,10.76
2023-02-17T19:12:51.334Z,10.78
2023-02-17T19:15:20.973Z,10.81
2023-02-17T19:17:51.233Z,10.81
2023-02-17T19:20:18.970Z,10.76
2023-02-17T19:22:46.577Z,10.75
2023-02-17T19:25:14.179Z,10.73
2023-02-17T19:27:41.868Z,10.74
2023-02-17T19:30:10.695Z,10.73
2023-02-17T19:32:39.679Z,10.70
2023-02-17T19:35:10.017Z,10.68
2023-02-17T19:37:39.042Z,10.68
2023-02-17T19:40:08.124Z,10.69
2023-02-17T19:42:35.737Z,10.71
2023-02-17T19:45:03.370Z,10.70
2023-02-17T19:47:31.636Z,10.67
2023-02-17T19:50:00.565Z,10.63
2023-02-17T19:52:28.778Z,10.63
2023-02-17T19:54:56.603Z,10.63
2023-02-17T19:57:24.172Z,10.64
2023-02-17T19:59:51.741Z,10.66
2023-02-17T20:02:19.335Z,10.64
2023-02-17T20:04:46.920Z,10.61
2023-02-17T20:07:15.883Z,10.59
2023-02-17T20:09:43.497Z,10.54
2023-02-17T20:12:11.108Z,10.53
2023-02-17T20:14:38.780Z,10.50
2023-02-17T20:17:06.420Z,10.51
2023-02-17T20:19:37.697Z,10.51
2023-02-17T20:22:05.498Z,10.54
2023-02-17T20:24:34.573Z,10.58
2023-02-17T20:27:02.353Z,10.58
2023-02-17T20:29:30.158Z,10.56
2023-02-17T20:31:57.842Z,10.57
2023-02-17T20:34:29.126Z,10.55
2023-02-17T20:36:56.837Z,10.56
2023-02-17T20:39:25.804Z,10.56
2023-02-17T20:41:55.457Z,10.61
2023-02-17T20:44:27.455Z,10.60
2023-02-17T20:46:55.893Z,10.59
2023-02-17T20:49:23.813Z,10.55
2023-02-17T20:51:51.387Z,10.53
2023-02-17T20:54:19.027Z,10.51
2023-02-17T20:56:47.899Z,10.50
2023-02-17T20:59:16.867Z,10.51
2023-02-17T21:01:44.754Z,10.51
2023-02-17T21:04:14.085Z,10.55
2023-02-17T21:06:43.200Z,10.59
2023-02-17T21:09:14.601Z,10.61
2023-02-17T21:11:42.714Z,10.67
2023-02-17T21:14:10.444Z,10.71
2023-02-17T21:16:39.709Z,10.74
2023-02-17T21:19:07.651Z,10.75
2023-02-17T21:21:35.735Z,10.80
2023-02-17T21:24:03.311Z,10.83
2023-02-17T21:26:30.909Z,10.83
2023-02-17T21:28:58.513Z,10.88
2023-02-17T21:31:27.037Z,10.97
2023-02-17T21:33:56.174Z,10.99
2023-02-17T21:36:23.794Z,11.00
2023-02-17T21:38:51.526Z,11.01
2023-02-17T21:41:20.956Z,11.02
2023-02-17T21:44:06.333Z,11.03
2023-02-17T21:46:34.654Z,11.05
2023-02-17T21:49:03.651Z,11.03
2023-02-17T21:51:31.661Z,11.02
2023-02-17T21:53:59.520Z,11.03
2023-02-17T21:56:27.126Z,11.05
2023-02-17T21:58:56.194Z,11.05
2023-02-17T22:01:25.356Z,11.06
2023-02-17T22:03:53.173Z,11.07
2023-02-17T22:06:24.253Z,11.08
2023-02-17T22:08:52.258Z,11.09
2023-02-17T22:11:21.520Z,11.08
2023-02-17T22:13:49.155Z,11.07
2023-02-17T22:16:16.957Z,11.05
2023-02-17T22:18:44.610Z,11.04
2023-02-17T22:21:13.912Z,11.05
2023-02-17T22:23:43.578Z,11.04
2023-02-17T22:26:13.011Z,11.04
2023-02-17T22:28:41.035Z,11.01
2023-02-17T22:31:08.741Z,11.02
2023-02-17T22:33:36.383Z,11.00
2023-02-17T22:36:07.284Z,11.02
2023-02-17T22:38:35.417Z,11.02
2023-02-17T22:41:07.752Z,11.01
2023-02-17T22:43:35.860Z,11.02
2023-02-17T22:46:04.009Z,11.02
2023-02-17T22:48:32.671Z,11.00
2023-02-17T22:51:00.479Z,10.99
2023-02-17T22:53:28.043Z,10.99
2023-02-17T22:55:56.978Z,11.01
2023-02-17T22:58:26.786Z,11.01
2023-02-17T23:01:03.663Z,11.03
2023-02-17T23:03:31.498Z,11.01
2023-02-17T23:06:00.750Z,11.02
2023-02-17T23:08:28.621Z,11.05
2023-02-17T23:10:56.240Z,11.02
2023-02-17T23:13:24.018Z,11.03
2023-02-17T23:15:53.131Z,11.03
2023-02-17T23:18:20.911Z,11.04
2023-02-17T23:20:50.102Z,11.00
2023-02-17T23:23:17.716Z,11.01
2023-02-17T23:25:49.738Z,11.00
2023-02-17T23:28:17.399Z,10.99
2023-02-17T23:30:46.798Z,11.03
2023-02-17T23:33:16.267Z,11.04
2023-02-17T23:35:45.054Z,11.05
2023-02-17T23:38:12.968Z,11.05
2023-02-17T23:40:41.358Z,11.08
2023-02-17T23:43:09.614Z,11.09
2023-02-17T23:45:39.157Z,11.10
2023-02-17T23:48:07.218Z,11.10
2023-02-17T23:50:36.171Z,11.12
2023-02-17T23:53:03.775Z,11.10
2023-02-17T23:55:31.342Z,11.11
2023-02-17T23:57:59.944Z,11.09
